Time;durP1;ratioP1;P1;durP2;ratioP2;P2;SDS_P1;SDS_P2;PMS_P1;PMS_P2;Temp;Humidity;BMP_temperature;BMP_pressure;BME280_temperature;BME280_humidity;BME280_pressure;Samples;Min_cycle;Max_cycle;Signal;HPM_P1;HPM_P2
2022/05/21 00:00:21;;;;;;;16.60;8.88;;;12.50;99.90;;;;;;5083097;28;20048;-64
2022/05/21 00:02:48;;;;;;;11.85;8.32;;;12.50;99.90;;;;;;5077673;28;20040;-63
2022/05/21 00:05:15;;;;;;;16.00;9.27;;;12.50;99.90;;;;;;5076295;28;20032;-64
2022/05/21 00:07:42;;;;;;;14.43;9.75;;;12.50;99.90;;;;;;5079296;28;20044;-63
2022/05/21 00:10:09;;;;;;;17.50;10.07;;;12.50;99.90;;;;;;5081436;28;20150;-63
2022/05/21 00:12:35;;;;;;;16.35;10.80;;;12.50;99.90;;;;;;5071928;28;20098;-64
2022/05/21 00:15:01;;;;;;;15.95;10.48;;;12.50;99.90;;;;;;5085558;28;20043;-65
2022/05/21 00:17:26;;;;;;;18.65;10.70;;;12.50;99.90;;;;;;5082670;28;20417;-63
2022/05/21 00:19:52;;;;;;;20.90;11.82;;;12.50;99.90;;;;;;5083132;28;20052;-63
2022/05/21 00:22:17;;;;;;;17.17;11.65;;;12.50;99.90;;;;;;5081918;28;20234;-64
2022/05/21 00:24:43;;;;;;;20.15;13.50;;;12.50;99.90;;;;;;5088011;28;20151;-64
2022/05/21 00:27:09;;;;;;;20.55;13.60;;;12.50;99.90;;;;;;5079182;28;20074;-64
2022/05/21 00:29:34;;;;;;;19.50;12.93;;;12.50;99.90;;;;;;5087227;28;20063;-65
2022/05/21 00:32:00;;;;;;;18.90;13.38;;;12.50;99.90;;;;;;5083255;28;20671;-63
2022/05/21 00:34:26;;;;;;;21.02;14.60;;;12.50;99.90;;;;;;5073476;28;20040;-64
2022/05/21 00:36:52;;;;;;;23.83;17.10;;;12.50;99.90;;;;;;5084179;28;20660;-63
2022/05/21 00:39:17;;;;;;;21.52;15.00;;;12.50;99.90;;;;;;5075438;28;20041;-64
2022/05/21 00:41:43;;;;;;;23.05;16.20;;;12.40;99.90;;;;;;5079050;28;20040;-64
2022/05/21 00:44:09;;;;;;;26.40;15.35;;;12.50;99.90;;;;;;5085627;28;20055;-63
2022/05/21 00:46:40;;;;;;;25.70;18.23;;;12.50;99.90;;;;;;5075378;28;20056;-63
2022/05/21 00:49:14;;;;;;;25.55;17.38;;;12.50;99.90;;;;;;5082537;28;20127;-63
2022/05/21 00:51:46;;;;;;;25.17;16.52;;;12.50;99.90;;;;;;5080695;28;20113;-64
2022/05/21 00:54:14;;;;;;;23.90;16.30;;;12.50;99.90;;;;;;5084081;28;20051;-63
2022/05/21 00:56:46;;;;;;;24.55;17.73;;;12.50;99.90;;;;;;5085315;28;20040;-63
2022/05/21 01:02:00;;;;;;;27.80;17.13;;;12.40;99.90;;;;;;5077245;28;20036;-66
2022/05/21 01:04:26;;;;;;;24.13;16.90;;;12.40;99.90;;;;;;5084320;28;20538;-64
2022/05/21 01:06:55;;;;;;;22.77;17.20;;;12.50;99.90;;;;;;5080060;28;20182;-63
2022/05/21 01:09:21;;;;;;;21.40;16.23;;;12.50;99.90;;;;;;5083909;28;20170;-63
2022/05/21 01:11:47;;;;;;;28.65;18.05;;;12.50;99.90;;;;;;5074683;28;20111;-64
2022/05/21 01:14:15;;;;;;;20.83;15.95;;;12.60;99.90;;;;;;5081066;28;20120;-64
2022/05/21 01:16:42;;;;;;;24.63;16.95;;;12.60;99.90;;;;;;5081812;28;20066;-64
2022/05/21 01:19:09;;;;;;;21.20;16.27;;;12.60;99.90;;;;;;5082253;28;20059;-63
2022/05/21 01:21:37;;;;;;;24.02;16.60;;;12.60;99.90;;;;;;5082426;28;20167;-63
2022/05/21 01:24:07;;;;;;;25.83;16.75;;;12.60;99.90;;;;;;5080770;28;20482;-65
2022/05/21 01:26:34;;;;;;;25.35;16.77;;;12.60;99.90;;;;;;5075899;28;20071;-62
2022/05/21 01:29:07;;;;;;;22.13;15.93;;;12.60;99.90;;;;;;5083550;28;20374;-63
2022/05/21 01:31:33;;;;;;;24.50;18.08;;;12.70;99.90;;;;;;5079642;28;20043;-63
2022/05/21 01:33:59;;;;;;;25.05;17.70;;;12.70;99.90;;;;;;5083584;28;20038;-62
2022/05/21 01:36:25;;;;;;;29.05;19.55;;;12.70;99.90;;;;;;5081566;28;20044;-64
2022/05/21 01:38:50;;;;;;;24.85;18.20;;;12.70;99.90;;;;;;5081109;28;20067;-63
2022/05/21 01:41:16;;;;;;;25.05;19.85;;;12.70;99.90;;;;;;5076339;28;20079;-65
2022/05/21 01:46:26;;;;;;;25.65;18.60;;;12.70;99.90;;;;;;5076294;28;20443;-63
2022/05/21 01:48:52;;;;;;;23.30;17.98;;;12.70;99.90;;;;;;5077114;28;20044;-62
2022/05/21 01:51:18;;;;;;;26.42;19.45;;;12.70;99.90;;;;;;5068704;28;20043;-63
2022/05/21 01:53:45;;;;;;;26.83;19.38;;;12.70;99.90;;;;;;5074977;28;20169;-63
2022/05/21 01:56:12;;;;;;;23.67;19.92;;;12.80;99.90;;;;;;5076506;28;20044;-62
2022/05/21 01:58:38;;;;;;;26.02;20.55;;;12.80;99.90;;;;;;5076655;28;20122;-64
2022/05/21 02:01:05;;;;;;;28.15;21.33;;;12.80;99.90;;;;;;5079448;28;20036;-61
2022/05/21 02:03:31;;;;;;;31.27;22.02;;;12.80;99.90;;;;;;5078067;28;20060;-61
2022/05/21 02:05:57;;;;;;;26.48;19.88;;;12.80;99.90;;;;;;5081409;28;20036;-62
2022/05/21 02:08:22;;;;;;;27.83;21.08;;;12.80;99.90;;;;;;5083225;28;20090;-62
2022/05/21 02:10:48;;;;;;;27.08;21.25;;;12.80;99.90;;;;;;5084923;28;20470;-61
2022/05/21 02:13:20;;;;;;;28.10;20.75;;;12.80;99.90;;;;;;5069732;28;20139;-61
2022/05/21 02:15:46;;;;;;;25.67;20.70;;;12.80;99.90;;;;;;5075904;28;20051;-62
2022/05/21 02:18:12;;;;;;;31.30;21.00;;;12.80;99.90;;;;;;5086437;28;20083;-61
2022/05/21 02:20:39;;;;;;;27.13;20.48;;;12.80;99.90;;;;;;5082869;28;20072;-62
2022/05/21 02:23:05;;;;;;;29.50;21.13;;;12.90;99.90;;;;;;5056058;28;20052;-62
2022/05/21 02:25:31;;;;;;;26.17;20.85;;;12.90;99.90;;;;;;5079784;28;20483;-61
2022/05/21 02:27:56;;;;;;;28.58;21.05;;;12.90;99.90;;;;;;5079926;28;20075;-61
2022/05/21 02:30:22;;;;;;;27.23;20.38;;;12.90;99.90;;;;;;5082177;28;20044;-61
2022/05/21 02:32:48;;;;;;;26.65;20.17;;;12.90;99.90;;;;;;5083232;28;20036;-62
2022/05/21 02:35:14;;;;;;;25.52;19.75;;;13.00;99.90;;;;;;5077493;28;20036;-62
2022/05/21 02:40:25;;;;;;;25.02;19.75;;;13.00;99.90;;;;;;5076352;28;20430;-64
2022/05/21 02:42:50;;;;;;;26.63;18.65;;;12.90;99.90;;;;;;5081109;28;20036;-62
2022/05/21 02:45:19;;;;;;;26.42;18.63;;;13.00;99.90;;;;;;5087386;28;20105;-61
2022/05/21 02:47:45;;;;;;;29.02;18.95;;;13.00;99.90;;;;;;5083877;28;20058;-64
2022/05/21 02:50:13;;;;;;;24.83;17.70;;;13.00;99.90;;;;;;5082093;28;20044;-62
2022/05/21 02:52:39;;;;;;;22.67;15.80;;;13.00;99.90;;;;;;5087560;28;20055;-62
2022/05/21 02:55:07;;;;;;;27.08;16.30;;;13.00;99.90;;;;;;5088746;28;20044;-62
2022/05/21 02:57:33;;;;;;;25.77;15.23;;;13.00;99.90;;;;;;5082652;28;20052;-62
2022/05/21 03:00:27;;;;;;;23.77;14.65;;;13.00;99.90;;;;;;5078737;28;20056;-62
2022/05/21 03:02:53;;;;;;;22.20;13.88;;;13.10;99.90;;;;;;5082419;28;20179;-62
2022/05/21 03:05:19;;;;;;;22.15;13.02;;;13.10;99.90;;;;;;5075476;28;20051;-63
2022/05/21 03:07:47;;;;;;;24.45;12.88;;;13.10;99.90;;;;;;5080988;28;20470;-63
2022/05/21 03:10:21;;;;;;;24.00;12.45;;;13.10;99.90;;;;;;5085812;28;20040;-62
2022/05/21 03:12:51;;;;;;;21.65;11.85;;;13.10;99.90;;;;;;5078064;28;20079;-63
2022/05/21 03:15:17;;;;;;;22.70;10.43;;;13.10;99.90;;;;;;5085077;28;20039;-62
2022/05/21 03:17:44;;;;;;;20.45;10.20;;;13.10;99.90;;;;;;5072890;28;20525;-62
2022/05/21 03:20:13;;;;;;;17.45;9.25;;;13.10;99.90;;;;;;5074685;28;20053;-63
2022/05/21 03:22:41;;;;;;;18.98;9.15;;;13.20;99.90;;;;;;5082547;28;20051;-63
2022/05/21 03:25:08;;;;;;;19.33;9.20;;;13.20;99.90;;;;;;5078652;28;20043;-62
2022/05/21 03:27:35;;;;;;;16.48;8.13;;;13.10;99.90;;;;;;5081392;28;20055;-62
2022/05/21 03:30:02;;;;;;;23.67;8.98;;;13.20;99.90;;;;;;5081814;28;20361;-63
2022/05/21 03:32:27;;;;;;;20.98;7.85;;;13.20;99.90;;;;;;5080785;28;20043;-62
2022/05/21 03:34:53;;;;;;;18.13;7.07;;;13.20;99.90;;;;;;5083110;28;20048;-62
2022/05/21 03:37:18;;;;;;;18.67;7.75;;;13.20;99.90;;;;;;5080038;28;20059;-61
2022/05/21 03:39:44;;;;;;;19.42;7.07;;;13.30;99.90;;;;;;5083571;28;20485;-61
2022/05/21 03:42:10;;;;;;;16.00;6.10;;;13.30;99.90;;;;;;5085976;28;20109;-62
2022/05/21 03:44:35;;;;;;;20.42;6.75;;;13.30;99.90;;;;;;5076818;28;20464;-62
2022/05/21 03:47:02;;;;;;;23.15;6.72;;;13.30;99.90;;;;;;5083009;28;20036;-63
2022/05/21 03:49:28;;;;;;;19.23;6.03;;;13.30;99.90;;;;;;5080717;28;20050;-61
2022/05/21 03:51:54;;;;;;;16.83;6.30;;;13.30;99.90;;;;;;5072921;28;21825;-65
2022/05/21 03:54:21;;;;;;;20.65;6.68;;;13.30;99.90;;;;;;5078480;28;20040;-62
2022/05/21 03:56:47;;;;;;;17.15;5.93;;;13.30;99.90;;;;;;5079251;28;20205;-63
2022/05/21 03:59:12;;;;;;;20.67;5.55;;;13.40;99.90;;;;;;5080655;28;20139;-62
2022/05/21 04:01:41;;;;;;;15.43;5.68;;;13.40;99.90;;;;;;5087248;28;20339;-62
2022/05/21 04:04:07;;;;;;;16.35;5.65;;;13.40;99.90;;;;;;5082050;28;20138;-62
2022/05/21 04:06:32;;;;;;;13.07;4.70;;;13.40;99.90;;;;;;5071559;28;20175;-64
2022/05/21 04:08:58;;;;;;;15.27;4.22;;;13.40;99.90;;;;;;5082738;28;20107;-62
2022/05/21 04:11:23;;;;;;;15.50;4.38;;;13.50;99.90;;;;;;5080989;28;20115;-62
2022/05/21 04:13:49;;;;;;;20.30;4.13;;;13.50;99.90;;;;;;5082992;28;20409;-61
2022/05/21 04:16:14;;;;;;;17.15;3.83;;;13.50;99.90;;;;;;5082074;28;20044;-61
2022/05/21 04:18:40;;;;;;;17.88;3.38;;;13.60;99.90;;;;;;5085887;28;20040;-61
2022/05/21 04:21:05;;;;;;;17.98;3.92;;;13.60;99.90;;;;;;5076487;28;20060;-61
2022/05/21 04:23:31;;;;;;;12.10;3.58;;;13.60;99.90;;;;;;5078203;28;20040;-62
2022/05/21 04:25:57;;;;;;;9.90;3.08;;;13.70;99.90;;;;;;5077157;28;20041;-61
2022/05/21 04:28:22;;;;;;;10.30;3.00;;;13.70;99.90;;;;;;5078495;28;20097;-63
2022/05/21 04:30:48;;;;;;;12.32;3.20;;;13.70;99.90;;;;;;5086664;28;20151;-62
2022/05/21 04:33:13;;;;;;;16.70;2.85;;;13.70;99.90;;;;;;5081951;28;20126;-61
2022/05/21 04:38:23;;;;;;;14.27;3.47;;;13.80;99.90;;;;;;5079888;28;20410;-61
2022/05/21 04:40:49;;;;;;;16.83;3.38;;;13.90;99.90;;;;;;5081295;28;20048;-61
2022/05/21 04:43:14;;;;;;;14.98;2.67;;;13.80;99.90;;;;;;5077966;28;20071;-62
2022/05/21 04:45:40;;;;;;;16.52;3.53;;;13.90;99.90;;;;;;5079030;28;20445;-62
2022/05/21 04:48:07;;;;;;;11.38;3.35;;;14.00;99.90;;;;;;5077333;28;20052;-62
2022/05/21 04:50:37;;;;;;;17.45;3.05;;;14.00;99.90;;;;;;5082387;28;20390;-62
2022/05/21 04:53:04;;;;;;;13.05;2.85;;;14.00;99.90;;;;;;5081778;28;20044;-62
2022/05/21 04:55:29;;;;;;;12.95;2.60;;;14.00;99.90;;;;;;5076403;28;20041;-62
2022/05/21 04:57:55;;;;;;;14.90;2.88;;;14.00;99.90;;;;;;5079027;28;21600;-62
2022/05/21 05:00:20;;;;;;;12.27;2.90;;;14.00;99.90;;;;;;5077233;28;20390;-63
2022/05/21 05:02:46;;;;;;;12.48;3.08;;;14.10;99.90;;;;;;5077877;28;21231;-62
2022/05/21 05:05:13;;;;;;;13.48;2.72;;;14.20;99.90;;;;;;5072218;28;20042;-62
2022/05/21 05:07:39;;;;;;;10.30;2.83;;;14.30;99.90;;;;;;5078189;28;20483;-63
2022/05/21 05:10:06;;;;;;;15.35;2.85;;;14.40;99.90;;;;;;5077704;28;20418;-62
2022/05/21 05:12:32;;;;;;;12.15;2.97;;;14.40;99.90;;;;;;5081306;28;20473;-62
2022/05/21 05:14:58;;;;;;;9.40;2.63;;;14.40;99.90;;;;;;5078876;28;20202;-63
2022/05/21 05:17:24;;;;;;;16.42;2.95;;;14.30;99.90;;;;;;5075683;28;20588;-62
2022/05/21 05:19:54;;;;;;;15.02;3.15;;;14.40;99.90;;;;;;5079227;28;20047;-62
2022/05/21 05:22:20;;;;;;;11.93;2.67;;;14.40;99.90;;;;;;5078044;28;20036;-63
2022/05/21 05:24:45;;;;;;;12.55;2.97;;;14.50;99.90;;;;;;5077770;28;20047;-62
2022/05/21 05:27:11;;;;;;;10.82;2.95;;;14.60;99.90;;;;;;5080201;28;20040;-63
2022/05/21 05:29:37;;;;;;;11.70;2.60;;;14.60;99.90;;;;;;5074996;28;20047;-62
2022/05/21 05:32:03;;;;;;;12.13;3.03;;;14.70;99.90;;;;;;5074953;28;20105;-65
2022/05/21 05:34:28;;;;;;;15.48;3.55;;;14.80;99.90;;;;;;5075474;28;20048;-63
2022/05/21 05:36:54;;;;;;;14.63;2.78;;;14.90;99.90;;;;;;5077780;28;20036;-61
2022/05/21 05:39:20;;;;;;;11.35;3.10;;;14.90;99.90;;;;;;5076249;28;20398;-64
2022/05/21 05:41:46;;;;;;;9.13;2.67;;;14.90;99.90;;;;;;5080039;28;20523;-62
2022/05/21 05:44:11;;;;;;;11.90;3.05;;;14.90;99.90;;;;;;5081191;28;20043;-62
2022/05/21 05:46:37;;;;;;;8.60;2.95;;;14.90;99.90;;;;;;5076337;28;20043;-63
2022/05/21 05:49:03;;;;;;;11.05;2.78;;;14.90;99.90;;;;;;5075191;28;20032;-65
2022/05/21 05:51:29;;;;;;;16.65;3.25;;;15.00;99.90;;;;;;5077285;28;20058;-64
2022/05/21 05:53:55;;;;;;;14.73;2.95;;;15.10;99.90;;;;;;5080336;28;20048;-65
2022/05/21 05:56:21;;;;;;;11.23;2.63;;;15.30;99.90;;;;;;5085441;28;20130;-64
2022/05/21 06:01:32;;;;;;;11.93;2.50;;;15.50;99.90;;;;;;5078837;28;20204;-63
2022/05/21 06:03:57;;;;;;;9.75;2.35;;;15.40;99.90;;;;;;5084149;28;20892;-62
2022/05/21 06:06:23;;;;;;;10.85;2.63;;;15.30;99.90;;;;;;5081240;28;20093;-63
2022/05/21 06:08:50;;;;;;;11.73;2.65;;;15.20;99.90;;;;;;5082840;28;20980;-62
2022/05/21 06:11:16;;;;;;;14.73;3.10;;;15.20;99.90;;;;;;5080349;28;20044;-64
2022/05/21 06:13:42;;;;;;;12.98;3.10;;;15.20;99.90;;;;;;5081390;28;20059;-62
2022/05/21 06:16:08;;;;;;;12.13;3.00;;;15.20;99.90;;;;;;5079873;28;20105;-63
2022/05/21 06:18:38;;;;;;;10.23;2.60;;;15.20;99.90;;;;;;5081286;28;20043;-63
2022/05/21 06:21:05;;;;;;;13.00;2.75;;;15.30;99.90;;;;;;5087228;28;20072;-63
2022/05/21 06:23:32;;;;;;;12.38;2.50;;;15.40;99.90;;;;;;5082036;28;20047;-64
2022/05/21 06:25:59;;;;;;;9.52;2.88;;;15.40;99.90;;;;;;5078909;28;20090;-63
2022/05/21 06:28:34;;;;;;;10.77;2.78;;;15.50;99.90;;;;;;5083541;28;20193;-66
2022/05/21 06:31:03;;;;;;;10.52;2.38;;;15.50;99.90;;;;;;5078255;28;20535;-67
2022/05/21 06:33:30;;;;;;;10.35;2.60;;;15.50;99.90;;;;;;5070128;28;20125;-64
2022/05/21 06:36:11;;;;;;;11.38;2.58;;;15.70;99.90;;;;;;5079627;28;20036;-65
2022/05/21 06:38:39;;;;;;;10.13;2.30;;;15.80;99.90;;;;;;5087231;28;20056;-62
2022/05/21 06:41:04;;;;;;;12.10;3.00;;;15.90;99.90;;;;;;5085485;28;20055;-66
2022/05/21 06:43:30;;;;;;;7.90;2.13;;;16.00;99.90;;;;;;5082866;28;20946;-67
2022/05/21 06:45:56;;;;;;;9.27;2.50;;;16.10;99.90;;;;;;5090588;28;20043;-65
2022/05/21 06:48:22;;;;;;;10.15;2.55;;;16.20;99.90;;;;;;5078823;28;20445;-62
2022/05/21 06:50:47;;;;;;;12.82;2.70;;;16.50;99.90;;;;;;5082647;28;20043;-61
2022/05/21 06:53:13;;;;;;;10.95;2.60;;;16.60;99.90;;;;;;5084399;28;20047;-61
2022/05/21 06:55:39;;;;;;;9.77;2.58;;;16.60;99.90;;;;;;5081308;28;20046;-64
2022/05/21 06:58:06;;;;;;;9.85;2.80;;;16.50;99.90;;;;;;5084374;28;20043;-62
2022/05/21 07:00:32;;;;;;;9.50;2.85;;;16.40;99.90;;;;;;5079834;28;20048;-66
2022/05/21 07:02:57;;;;;;;12.35;2.53;;;16.50;99.90;;;;;;5077784;28;20043;-64
2022/05/21 07:08:20;;;;;;;11.10;2.50;;;16.40;99.90;;;;;;5084277;28;20497;-62
2022/05/21 07:10:46;;;;;;;11.73;2.55;;;16.60;99.90;;;;;;5078238;28;20388;-63
2022/05/21 07:13:12;;;;;;;12.05;2.55;;;16.60;99.90;;;;;;5080994;28;20040;-62
2022/05/21 07:15:38;;;;;;;12.05;2.92;;;16.70;99.90;;;;;;5076324;28;20041;-63
2022/05/21 07:18:04;;;;;;;10.23;2.28;;;16.60;99.90;;;;;;5081337;28;20073;-62
2022/05/21 07:20:30;;;;;;;10.77;2.05;;;16.60;99.90;;;;;;5087329;28;20040;-62
2022/05/21 07:22:57;;;;;;;11.18;2.63;;;16.50;99.90;;;;;;5081205;28;20044;-63
2022/05/21 07:25:26;;;;;;;11.05;2.60;;;16.40;99.90;;;;;;5082548;28;20166;-64
2022/05/21 07:27:52;;;;;;;12.00;2.58;;;16.30;99.90;;;;;;5079090;28;20421;-63
2022/05/21 07:30:18;;;;;;;11.80;2.45;;;16.30;99.90;;;;;;5085393;28;20055;-62
2022/05/21 07:32:45;;;;;;;9.93;2.13;;;16.20;99.90;;;;;;5078553;28;20098;-63
2022/05/21 07:35:14;;;;;;;10.38;2.50;;;16.20;99.90;;;;;;5085074;28;20066;-63
2022/05/21 07:37:40;;;;;;;10.60;2.22;;;16.30;99.90;;;;;;5077546;28;20079;-63
2022/05/21 07:40:11;;;;;;;11.02;2.67;;;16.40;99.90;;;;;;5079278;28;20059;-64
2022/05/21 07:42:37;;;;;;;14.00;3.10;;;16.40;99.90;;;;;;5085064;28;20122;-63
2022/05/21 07:45:04;;;;;;;10.40;2.40;;;16.40;99.90;;;;;;5084245;28;20123;-66
2022/05/21 07:47:29;;;;;;;11.75;2.63;;;16.50;99.90;;;;;;5082468;28;20456;-64
2022/05/21 07:49:56;;;;;;;7.18;1.92;;;16.80;99.90;;;;;;5081124;28;20140;-64
2022/05/21 07:52:23;;;;;;;10.15;2.28;;;17.20;99.90;;;;;;5087385;28;20520;-62
2022/05/21 07:54:49;;;;;;;10.48;2.22;;;17.30;99.90;;;;;;5082503;28;20519;-63
2022/05/21 07:57:14;;;;;;;11.73;2.58;;;17.40;99.90;;;;;;5077965;28;20040;-63
2022/05/21 07:59:40;;;;;;;11.57;2.28;;;17.60;99.90;;;;;;5079506;28;20421;-63
2022/05/21 08:02:11;;;;;;;11.57;2.13;;;17.40;99.90;;;;;;5084052;28;20087;-63
2022/05/21 08:04:38;;;;;;;8.32;1.92;;;17.30;99.90;;;;;;5074431;28;20055;-65
2022/05/21 08:07:03;;;;;;;9.73;2.00;;;17.30;99.90;;;;;;5075432;28;20044;-62
2022/05/21 08:09:29;;;;;;;11.30;2.58;;;17.30;99.90;;;;;;5084371;28;20105;-63
2022/05/21 08:11:54;;;;;;;10.10;2.67;;;17.10;99.90;;;;;;5081254;28;20139;-63
2022/05/21 08:14:20;;;;;;;8.18;2.28;;;17.20;99.90;;;;;;5085629;28;20043;-62
2022/05/21 08:16:46;;;;;;;7.57;2.00;;;17.30;99.90;;;;;;5079944;28;20522;-62
2022/05/21 08:19:12;;;;;;;9.32;1.70;;;17.50;99.90;;;;;;5080857;28;20036;-62
2022/05/21 08:21:39;;;;;;;8.18;1.80;;;17.80;99.90;;;;;;5084666;28;20089;-64
2022/05/21 08:27:00;;;;;;;11.80;2.22;;;17.70;99.90;;;;;;5075033;28;20072;-63
2022/05/21 08:29:34;;;;;;;8.55;2.00;;;17.70;99.90;;;;;;5081773;28;20088;-63
2022/05/21 08:32:01;;;;;;;8.02;2.03;;;17.60;99.90;;;;;;5079206;28;20108;-63
2022/05/21 08:34:27;;;;;;;7.40;1.92;;;17.60;99.90;;;;;;5079250;28;20040;-63
2022/05/21 08:36:53;;;;;;;9.57;2.13;;;17.50;99.90;;;;;;5074274;28;20518;-63
2022/05/21 08:39:20;;;;;;;9.02;2.20;;;17.50;99.90;;;;;;5077844;28;20037;-63
2022/05/21 08:42:00;;;;;;;10.18;2.30;;;17.20;99.90;;;;;;5076931;28;20644;-65
2022/05/21 08:44:43;;;;;;;11.27;2.50;;;17.00;99.90;;;;;;5077252;28;20134;-63
2022/05/21 08:47:20;;;;;;;10.50;2.55;;;17.20;99.90;;;;;;5083454;28;20036;-63
2022/05/21 08:49:59;;;;;;;8.27;2.05;;;17.30;99.90;;;;;;5088651;28;20036;-64
2022/05/21 08:52:33;;;;;;;9.60;2.00;;;17.20;99.90;;;;;;5083192;28;20493;-62
2022/05/21 08:55:00;;;;;;;7.95;2.05;;;17.20;99.90;;;;;;5073283;28;20078;-62
2022/05/21 08:57:27;;;;;;;7.90;2.10;;;17.30;99.90;;;;;;5080018;28;20114;-64
2022/05/21 09:00:03;;;;;;;7.35;1.63;;;17.40;99.90;;;;;;5074788;28;20466;-65
2022/05/21 09:02:33;;;;;;;7.28;1.67;;;17.70;99.90;;;;;;5075245;28;20052;-62
2022/05/21 09:04:59;;;;;;;6.85;1.50;;;18.00;99.90;;;;;;5078238;28;20044;-64
2022/05/21 09:07:30;;;;;;;8.40;1.67;;;18.40;99.90;;;;;;5078188;28;20036;-67
2022/05/21 09:10:28;;;;;;;9.15;2.08;;;18.70;99.90;;;;;;5085893;28;20434;-64
2022/05/21 09:13:06;;;;;;;8.25;1.90;;;18.80;99.90;;;;;;5078772;28;20049;-63
2022/05/21 09:18:16;;;;;;;10.65;2.33;;;18.60;99.90;;;;;;5079441;28;20083;-63
2022/05/21 09:20:59;;;;;;;9.07;1.90;;;18.40;99.90;;;;;;5073026;28;20079;-64
2022/05/21 09:23:26;;;;;;;11.10;2.55;;;18.30;99.90;;;;;;5084989;28;20049;-65
2022/05/21 09:26:07;;;;;;;6.68;2.03;;;18.10;99.90;;;;;;5081528;28;20040;-64
2022/05/21 09:28:37;;;;;;;10.20;2.15;;;18.00;99.90;;;;;;5084444;28;20051;-65
2022/05/21 09:31:05;;;;;;;9.02;1.80;;;18.00;99.90;;;;;;5085107;28;20048;-64
2022/05/21 09:33:41;;;;;;;6.55;1.90;;;18.10;99.90;;;;;;5083885;28;20048;-64
2022/05/21 09:36:07;;;;;;;6.63;1.60;;;18.30;99.90;;;;;;5073496;28;20035;-62
2022/05/21 09:38:47;;;;;;;10.25;1.80;;;18.30;99.90;;;;;;5081852;28;20036;-63
2022/05/21 09:41:27;;;;;;;7.28;2.00;;;18.30;99.90;;;;;;5079220;28;20064;-63
2022/05/21 09:46:40;;;;;;;9.88;2.50;;;18.70;99.90;;;;;;5070228;28;20079;-65
2022/05/21 09:49:30;;;;;;;9.27;1.95;;;18.90;99.90;;;;;;5084203;28;20359;-64
2022/05/21 09:52:08;;;;;;;7.30;1.80;;;19.20;99.90;;;;;;5082436;28;20427;-64
2022/05/21 09:54:46;;;;;;;7.97;1.85;;;19.40;99.90;;;;;;5077015;28;20040;-63
2022/05/21 09:57:30;;;;;;;8.40;1.92;;;19.50;99.90;;;;;;5079259;28;20086;-63
2022/05/21 10:00:18;;;;;;;6.60;1.40;;;19.60;98.70;;;;;;5077010;28;20512;-63
2022/05/21 10:02:47;;;;;;;8.80;1.70;;;19.60;98.40;;;;;;5081815;28;20040;-63
2022/05/21 10:05:18;;;;;;;7.00;1.55;;;19.50;98.40;;;;;;5073737;28;20120;-63
2022/05/21 10:11:00;;;;;;;7.68;1.67;;;19.80;97.70;;;;;;5078369;28;20540;-65
2022/05/21 10:13:44;;;;;;;8.80;2.00;;;19.80;98.30;;;;;;5075999;28;20044;-63
2022/05/21 10:16:34;;;;;;;8.23;2.10;;;19.90;98.10;;;;;;5080699;28;20036;-64
2022/05/21 10:19:15;;;;;;;8.50;2.45;;;19.90;98.80;;;;;;5077415;28;20040;-64
2022/05/21 10:21:57;;;;;;;8.20;2.05;;;19.90;99.90;;;;;;5083177;28;20048;-65
2022/05/21 10:25:01;;;;;;;8.75;1.80;;;19.60;97.40;;;;;;5077092;28;20044;-63
2022/05/21 10:27:42;;;;;;;12.90;2.50;;;19.40;97.70;;;;;;5076056;28;20199;-63
2022/05/21 10:30:14;;;;;;;7.28;1.70;;;19.40;98.70;;;;;;5082816;28;20044;-63
2022/05/21 10:33:32;;;;;;;5.40;1.60;;;19.70;98.60;;;;;;5072658;28;20051;-65
2022/05/21 10:36:16;;;;;;;9.95;2.13;;;20.10;97.00;;;;;;5080293;28;20062;-63
2022/05/21 10:39:05;;;;;;;9.63;1.80;;;20.10;96.80;;;;;;5077832;28;20119;-64
2022/05/21 10:41:34;;;;;;;9.13;2.15;;;20.10;96.70;;;;;;5084263;28;20040;-65
2022/05/21 10:44:17;;;;;;;11.10;1.90;;;20.00;96.60;;;;;;5079264;28;20052;-62
2022/05/21 10:46:51;;;;;;;8.70;1.77;;;20.00;96.50;;;;;;5079917;28;20523;-64
2022/05/21 10:49:29;;;;;;;7.15;1.80;;;20.00;95.40;;;;;;5085331;28;20048;-63
2022/05/21 10:52:21;;;;;;;8.05;1.70;;;19.90;95.80;;;;;;5079204;28;20143;-63
2022/05/21 10:54:58;;;;;;;6.68;1.75;;;19.80;96.00;;;;;;5081716;28;20056;-62
2022/05/21 10:57:51;;;;;;;6.65;1.90;;;19.80;95.30;;;;;;5079785;28;20362;-62
2022/05/21 11:00:28;;;;;;;8.73;1.60;;;19.80;95.90;;;;;;5062317;28;20450;-62
2022/05/21 11:03:29;;;;;;;9.18;1.90;;;19.70;95.30;;;;;;5082797;28;20051;-64
2022/05/21 11:06:15;;;;;;;7.22;1.73;;;19.60;94.80;;;;;;5086661;28;20120;-63
2022/05/21 11:09:09;;;;;;;8.07;1.70;;;19.60;95.20;;;;;;5084268;28;20154;-64
2022/05/21 11:12:03;;;;;;;4.90;1.45;;;19.60;94.90;;;;;;5079402;28;20449;-63
2022/05/21 11:14:44;;;;;;;7.47;1.67;;;19.70;95.10;;;;;;5087137;28;20105;-64
2022/05/21 11:17:19;;;;;;;6.90;1.58;;;19.80;95.30;;;;;;5085603;28;20049;-64
2022/05/21 11:19:51;;;;;;;9.20;1.70;;;19.90;94.90;;;;;;5083737;28;20048;-64
2022/05/21 11:22:24;;;;;;;8.40;1.70;;;19.90;95.20;;;;;;5081599;28;20038;-64
2022/05/21 11:25:14;;;;;;;5.47;1.55;;;19.80;95.20;;;;;;5080503;28;20461;-66
2022/05/21 11:27:48;;;;;;;7.25;1.63;;;19.70;95.00;;;;;;5086009;28;20397;-62
2022/05/21 11:30:20;;;;;;;8.37;1.73;;;19.70;95.40;;;;;;5079982;28;20046;-62
2022/05/21 11:38:49;;;;;;;8.63;1.83;;;19.40;95.30;;;;;;5073346;28;20041;-62
2022/05/21 11:41:28;;;;;;;8.10;2.20;;;19.40;96.10;;;;;;5075023;28;20043;-62
2022/05/21 11:47:05;;;;;;;6.78;1.88;;;19.60;96.50;;;;;;5074893;28;20330;-64
2022/05/21 11:49:38;;;;;;;8.50;2.10;;;19.90;96.80;;;;;;5074537;28;20437;-63
2022/05/21 11:52:31;;;;;;;6.18;1.80;;;20.00;96.00;;;;;;5072304;28;20119;-62
2022/05/21 11:54:57;;;;;;;8.73;1.90;;;19.90;94.30;;;;;;5077841;28;20040;-63
2022/05/21 11:57:41;;;;;;;6.93;1.90;;;19.90;95.60;;;;;;5072276;28;20048;-63
2022/05/21 12:00:40;;;;;;;10.02;2.47;;;20.00;95.10;;;;;;5082823;28;20083;-62
2022/05/21 12:03:07;;;;;;;9.57;2.42;;;20.10;94.10;;;;;;5074793;28;20044;-62
2022/05/21 12:05:37;;;;;;;8.90;2.33;;;20.10;94.70;;;;;;5084340;28;20238;-62
2022/05/21 12:08:21;;;;;;;7.57;1.95;;;20.10;94.80;;;;;;5078167;28;20136;-63
2022/05/21 12:11:07;;;;;;;7.63;1.80;;;19.80;94.10;;;;;;5073567;28;20043;-62
2022/05/21 12:13:33;;;;;;;5.70;1.83;;;20.00;95.50;;;;;;5078555;28;20118;-62
2022/05/21 12:16:15;;;;;;;10.77;2.58;;;19.90;95.70;;;;;;5083023;28;20072;-63
2022/05/21 12:18:47;;;;;;;9.48;2.03;;;20.30;95.10;;;;;;5076983;28;20122;-62
2022/05/21 12:21:28;;;;;;;8.73;2.03;;;20.30;94.20;;;;;;5073223;28;20041;-62
2022/05/21 12:23:54;;;;;;;6.97;1.98;;;20.70;94.20;;;;;;5071974;28;20045;-62
2022/05/21 12:26:22;;;;;;;7.18;1.70;;;20.70;93.90;;;;;;5077926;28;20055;-62
2022/05/21 12:29:17;;;;;;;6.40;2.03;;;20.70;93.40;;;;;;5084795;28;20123;-62
2022/05/21 12:31:50;;;;;;;8.20;1.95;;;20.90;93.70;;;;;;5086426;28;20086;-65
2022/05/21 12:34:40;;;;;;;6.60;1.80;;;21.10;92.20;;;;;;5083892;28;20869;-62
2022/05/21 12:37:18;;;;;;;8.13;2.20;;;21.10;92.30;;;;;;5078721;28;20036;-63
2022/05/21 12:40:23;;;;;;;6.18;1.92;;;20.90;92.00;;;;;;5074718;28;20094;-62
2022/05/21 12:42:57;;;;;;;10.85;1.95;;;20.70;91.10;;;;;;5082338;28;20044;-65
2022/05/21 12:45:37;;;;;;;7.75;1.98;;;20.70;91.80;;;;;;5079073;28;20417;-63
2022/05/21 12:48:08;;;;;;;8.30;2.00;;;20.60;91.20;;;;;;5075242;28;20131;-64
2022/05/21 12:50:35;;;;;;;9.57;2.10;;;20.50;92.10;;;;;;5082968;28;20382;-63
2022/05/21 12:53:01;;;;;;;8.05;1.95;;;20.50;92.40;;;;;;5083518;28;20040;-64
2022/05/21 12:55:32;;;;;;;8.40;2.00;;;20.60;92.60;;;;;;5083830;28;20042;-63
2022/05/21 12:58:08;;;;;;;7.35;2.30;;;20.70;92.50;;;;;;5083129;28;20040;-62
2022/05/21 13:00:35;;;;;;;6.95;2.03;;;20.70;92.70;;;;;;5072722;28;20124;-62
2022/05/21 13:03:09;;;;;;;7.78;2.22;;;20.70;92.70;;;;;;5078924;28;20414;-64
2022/05/21 13:05:47;;;;;;;9.13;2.30;;;20.90;92.60;;;;;;5082290;28;20818;-64
2022/05/21 13:08:13;;;;;;;8.18;2.00;;;20.90;91.70;;;;;;5068640;28;20059;-62
2022/05/21 13:10:56;;;;;;;5.53;1.77;;;21.00;92.00;;;;;;5086075;28;20039;-62
2022/05/21 13:13:23;;;;;;;7.55;2.00;;;20.80;92.20;;;;;;5078645;28;20059;-63
2022/05/21 13:15:56;;;;;;;6.38;1.80;;;20.60;91.40;;;;;;5077377;28;20199;-62
2022/05/21 13:18:22;;;;;;;8.77;2.13;;;20.70;91.50;;;;;;5082959;28;20121;-63
2022/05/21 13:21:12;;;;;;;7.22;1.60;;;20.60;91.00;;;;;;5085620;28;20043;-63
2022/05/21 13:24:12;;;;;;;8.10;1.75;;;20.30;91.60;;;;;;5086228;28;20056;-63
2022/05/21 13:26:42;;;;;;;9.65;1.80;;;20.30;92.40;;;;;;5071823;28;20110;-65
2022/05/21 13:29:22;;;;;;;8.07;2.00;;;20.00;92.80;;;;;;5076198;28;20036;-63
2022/05/21 13:31:50;;;;;;;9.20;1.80;;;20.10;92.70;;;;;;5068006;28;20052;-63